Time;durP1;ratioP1;P1;durP2;ratioP2;P2;SDS_P1;SDS_P2;PMS_P1;PMS_P2;Temp;Humidity;BMP_temperature;BMP_pressure;BME280_temperature;BME280_humidity;BME280_pressure;Samples;Min_cycle;Max_cycle;Signal;HPM_P1;HPM_P2
2022/05/02 00:01:06;;;;;;;7.20;3.90;;;;;;;-141.50;100.00;63355.56;5088675;28;20048;-80
2022/05/02 00:03:37;;;;;;;7.55;4.55;;;;;;;-141.50;100.00;63355.56;5092108;28;20098;-81
2022/05/02 00:06:03;;;;;;;7.53;4.38;;;;;;;-141.50;100.00;63355.56;5093116;28;20079;-80
2022/05/02 00:08:30;;;;;;;7.07;4.90;;;;;;;-141.50;100.00;63355.56;5097059;28;20113;-79
2022/05/02 00:10:57;;;;;;;8.02;4.75;;;;;;;-141.50;100.00;63355.56;5095906;28;20052;-82
2022/05/02 00:13:23;;;;;;;8.82;4.63;;;;;;;-141.50;100.00;63355.56;5113584;28;20063;-81
2022/05/02 00:15:52;;;;;;;8.57;5.15;;;;;;;-141.50;100.00;63355.56;5098948;28;20052;-82
2022/05/02 00:18:19;;;;;;;8.88;4.78;;;;;;;-141.50;100.00;63355.56;5097123;28;20072;-82
2022/05/02 00:20:45;;;;;;;8.50;4.72;;;;;;;-141.50;100.00;63355.56;5098747;28;20074;-82
2022/05/02 00:23:12;;;;;;;9.18;5.53;;;;;;;-141.50;100.00;63355.56;5097119;28;20055;-81
2022/05/02 00:25:39;;;;;;;9.70;5.32;;;;;;;-141.50;100.00;63355.56;5095928;28;20077;-80
2022/05/02 00:28:17;;;;;;;11.10;5.18;;;;;;;-141.50;100.00;63355.56;5092282;28;20056;-81
2022/05/02 00:30:48;;;;;;;9.70;5.20;;;;;;;-141.50;100.00;63355.56;5092823;28;20044;-80
2022/05/02 00:33:18;;;;;;;10.00;4.70;;;;;;;-141.50;100.00;63355.56;5094444;28;20048;-83
2022/05/02 00:35:52;;;;;;;11.02;5.22;;;;;;;-141.50;100.00;63355.56;5094729;28;20071;-81
2022/05/02 00:38:19;;;;;;;9.15;5.30;;;;;;;-141.50;100.00;63355.56;5081789;28;20049;-82
2022/05/02 00:40:46;;;;;;;9.30;5.25;;;;;;;-141.50;100.00;63355.56;5080738;28;20385;-81
2022/05/02 00:43:12;;;;;;;9.57;5.32;;;;;;;-141.50;100.00;63355.56;5075295;28;20098;-82
2022/05/02 00:45:39;;;;;;;10.10;5.05;;;;;;;-141.50;100.00;63355.56;5074662;28;20066;-82
2022/05/02 00:48:06;;;;;;;10.40;5.30;;;;;;;-141.50;100.00;63355.56;5075526;28;20052;-82
2022/05/02 00:50:42;;;;;;;10.63;4.60;;;;;;;-141.50;100.00;63355.56;5076994;28;20120;-82
2022/05/02 00:53:12;;;;;;;13.82;4.85;;;;;;;-141.50;100.00;63355.56;5076007;28;20117;-82
2022/05/02 00:55:41;;;;;;;8.40;5.40;;;;;;;-141.50;100.00;63355.56;5076529;28;20090;-81
2022/05/02 00:58:10;;;;;;;8.93;4.88;;;;;;;-141.50;100.00;63355.56;5079007;28;20412;-80
2022/05/02 01:00:42;;;;;;;10.02;5.50;;;;;;;-141.50;100.00;63355.56;5076718;28;20106;-80
2022/05/02 01:03:19;;;;;;;11.30;5.25;;;;;;;-141.50;100.00;63355.56;5072825;28;20088;-81
2022/05/02 01:08:38;;;;;;;12.25;5.57;;;;;;;-141.50;100.00;63355.56;5074670;28;20079;-81
2022/05/02 01:11:04;;;;;;;11.15;5.68;;;;;;;-141.50;100.00;63355.56;5071615;28;20060;-79
2022/05/02 01:13:36;;;;;;;11.32;5.18;;;;;;;-141.50;100.00;63355.56;5073730;28;20520;-81
2022/05/02 01:16:11;;;;;;;15.38;5.80;;;;;;;-141.50;100.00;63355.56;5075324;28;20088;-81
2022/05/02 01:18:43;;;;;;;11.93;5.63;;;;;;;-141.50;100.00;63355.56;5073206;28;20071;-80
2022/05/02 01:21:23;;;;;;;10.50;5.80;;;;;;;-141.50;100.00;63355.56;5074490;28;20060;-81
2022/05/02 01:23:53;;;;;;;9.93;5.50;;;;;;;-141.50;100.00;63355.56;5072742;28;20053;-82
2022/05/02 01:26:20;;;;;;;11.75;5.85;;;;;;;-141.50;100.00;63355.56;5075555;28;20048;-79
2022/05/02 01:28:54;;;;;;;9.55;5.75;;;;;;;-141.50;100.00;63355.56;5077940;28;20052;-81
2022/05/02 01:31:20;;;;;;;8.85;5.22;;;;;;;-141.50;100.00;63355.56;5077872;28;20048;-82
2022/05/02 01:33:49;;;;;;;8.95;5.57;;;;;;;-141.50;100.00;63355.56;5077512;28;20135;-81
2022/05/02 01:36:17;;;;;;;11.70;5.65;;;;;;;-141.50;100.00;63355.56;5078107;28;20113;-80
2022/05/02 01:38:45;;;;;;;8.88;5.10;;;;;;;-141.50;100.00;63355.56;5085444;28;20052;-81
2022/05/02 01:41:12;;;;;;;9.38;5.50;;;;;;;-141.50;100.00;63355.56;5094278;28;20048;-81
2022/05/02 01:43:40;;;;;;;9.52;5.18;;;;;;;-141.50;100.00;63355.56;5097593;28;20086;-80
2022/05/02 01:46:10;;;;;;;11.93;5.75;;;;;;;-141.50;100.00;63355.56;5100985;28;20044;-82
2022/05/02 01:48:37;;;;;;;12.50;5.85;;;;;;;-141.50;100.00;63355.56;5100638;28;20048;-81
2022/05/02 01:51:07;;;;;;;11.07;5.88;;;;;;;-141.50;100.00;63355.56;5097810;28;20044;-81
2022/05/02 01:53:34;;;;;;;13.95;5.60;;;;;;;-141.50;100.00;63355.56;5093780;28;20052;-80
2022/05/02 01:56:01;;;;;;;10.45;5.82;;;;;;;-141.50;100.00;63355.56;5079900;28;20455;-82
2022/05/02 01:58:27;;;;;;;14.27;5.93;;;;;;;-141.50;100.00;63355.56;5074881;28;20078;-80
2022/05/02 02:00:54;;;;;;;9.85;5.78;;;;;;;-141.50;100.00;63355.56;5075159;28;20056;-81
2022/05/02 02:03:21;;;;;;;9.23;5.68;;;;;;;-141.50;100.00;63355.56;5075645;28;20151;-82
2022/05/02 02:05:51;;;;;;;12.07;5.90;;;;;;;-141.50;100.00;63355.56;5075220;28;20623;-81
2022/05/02 02:08:31;;;;;;;13.43;6.30;;;;;;;-141.50;100.00;63355.56;5075017;28;20103;-82
2022/05/02 02:11:02;;;;;;;13.32;5.85;;;;;;;-141.50;100.00;63355.56;5075578;28;20117;-83
2022/05/02 02:13:30;;;;;;;13.07;5.75;;;;;;;-141.50;100.00;63355.56;5075810;28;20175;-80
2022/05/02 02:15:59;;;;;;;13.98;5.80;;;;;;;-141.50;100.00;63355.56;5076772;28;20094;-81
2022/05/02 02:18:34;;;;;;;10.10;6.50;;;;;;;-141.50;100.00;63355.56;5077435;28;20135;-81
2022/05/02 02:21:03;;;;;;;12.77;7.03;;;;;;;-141.50;100.00;63355.56;5077322;28;20114;-81
2022/05/02 02:23:30;;;;;;;12.95;6.78;;;;;;;-141.50;100.00;63355.56;5077403;28;20044;-81
2022/05/02 02:25:56;;;;;;;11.15;6.70;;;;;;;-141.50;100.00;63355.56;5078584;28;20068;-80
2022/05/02 02:28:23;;;;;;;11.50;7.15;;;;;;;-141.50;100.00;63355.56;5077188;28;20664;-81
2022/05/02 02:31:06;;;;;;;12.73;7.05;;;;;;;-141.50;100.00;63355.56;5078131;28;20067;-80
2022/05/02 02:33:37;;;;;;;10.15;6.43;;;;;;;-141.50;100.00;63355.56;5078698;28;20049;-80
2022/05/02 02:36:04;;;;;;;11.00;6.85;;;;;;;-141.50;100.00;63355.56;5077975;28;20048;-83
2022/05/02 02:38:31;;;;;;;13.68;7.35;;;;;;;-141.50;100.00;63355.56;5077295;28;20107;-81
2022/05/02 02:40:57;;;;;;;14.30;6.65;;;;;;;-141.50;100.00;63355.56;5077020;28;20686;-81
2022/05/02 02:43:24;;;;;;;10.13;6.57;;;;;;;-141.50;100.00;63355.56;5072757;28;20056;-81
2022/05/02 02:45:50;;;;;;;13.30;7.22;;;;;;;-141.50;100.00;63355.56;5074972;28;20048;-80
2022/05/02 02:48:28;;;;;;;13.35;6.65;;;;;;;-141.50;100.00;63355.56;5075454;28;20083;-80
2022/05/02 02:50:54;;;;;;;11.45;7.00;;;;;;;-141.50;100.00;63355.56;5075520;28;20070;-82
2022/05/02 02:53:21;;;;;;;13.73;7.28;;;;;;;-141.50;100.00;63355.56;5076311;28;20083;-82
2022/05/02 02:55:47;;;;;;;12.65;6.88;;;;;;;-141.50;100.00;63355.56;5077145;28;20049;-81
2022/05/02 02:58:16;;;;;;;11.77;7.00;;;;;;;-141.50;100.00;63355.56;5072002;28;20059;-82
2022/05/02 03:00:45;;;;;;;16.33;7.78;;;;;;;-141.50;100.00;63355.56;5076394;28;20048;-81
2022/05/02 03:03:12;;;;;;;10.45;6.55;;;;;;;-141.50;100.00;63355.56;5074723;28;20048;-82
2022/05/02 03:08:23;;;;;;;12.23;6.40;;;;;;;-141.50;100.00;63355.56;5073373;28;20048;-81
2022/05/02 03:10:54;;;;;;;12.52;6.22;;;;;;;-141.50;100.00;63355.56;5071972;28;20441;-81
2022/05/02 03:13:21;;;;;;;17.83;6.25;;;;;;;-141.50;100.00;63355.56;5071927;28;20060;-81
2022/05/02 03:15:48;;;;;;;10.90;6.45;;;;;;;-141.50;100.00;63355.56;5071830;28;20068;-80
2022/05/02 03:18:15;;;;;;;10.55;7.00;;;;;;;-141.50;100.00;63355.56;5074934;28;20125;-80
2022/05/02 03:20:43;;;;;;;15.13;6.97;;;;;;;-141.50;100.00;63355.56;5076883;28;20052;-79
2022/05/02 03:23:10;;;;;;;12.45;7.72;;;;;;;-141.50;100.00;63355.56;5076625;28;20133;-81
2022/05/02 03:25:36;;;;;;;20.55;8.23;;;;;;;-141.50;100.00;63355.56;5077058;28;20404;-79
2022/05/02 03:28:03;;;;;;;14.00;7.70;;;;;;;-141.50;100.00;63355.56;5075984;28;20494;-81
2022/05/02 03:30:32;;;;;;;13.45;7.72;;;;;;;-141.50;100.00;63355.56;5075203;28;20059;-80
2022/05/02 03:33:01;;;;;;;13.90;7.55;;;;;;;-141.50;100.00;63355.56;5075743;28;20677;-80
2022/05/02 03:35:29;;;;;;;14.55;8.00;;;;;;;-141.50;100.00;63355.56;5079297;28;20039;-79
2022/05/02 03:37:55;;;;;;;16.02;8.95;;;;;;;-141.50;100.00;63355.56;5080586;28;20080;-81
2022/05/02 03:40:22;;;;;;;16.40;8.32;;;;;;;-141.50;100.00;63355.56;5096609;28;20097;-81
2022/05/02 03:42:49;;;;;;;14.48;8.85;;;;;;;-141.50;100.00;63355.56;5095774;28;20083;-82
2022/05/02 03:45:15;;;;;;;19.00;9.43;;;;;;;-141.50;100.00;63355.56;5095521;28;20076;-81
2022/05/02 03:47:45;;;;;;;15.07;8.60;;;;;;;-141.50;100.00;63355.56;5096838;28;20105;-80
2022/05/02 03:50:21;;;;;;;16.50;8.27;;;;;;;-141.50;100.00;63355.56;5097871;28;20047;-83
2022/05/02 03:52:53;;;;;;;14.02;7.65;;;;;;;-141.50;100.00;63355.56;5090209;28;20141;-78
2022/05/02 03:55:25;;;;;;;16.33;7.20;;;;;;;-141.50;100.00;63355.56;5079202;28;20198;-79
2022/05/02 03:57:52;;;;;;;13.60;6.90;;;;;;;-141.50;100.00;63355.56;5077436;28;20049;-80
2022/05/02 04:00:19;;;;;;;11.43;6.55;;;;;;;-141.50;100.00;63355.56;5077601;28;20415;-81
2022/05/02 04:02:52;;;;;;;13.52;6.00;;;;;;;-141.50;100.00;63355.56;5075778;28;20428;-81
2022/05/02 04:05:19;;;;;;;11.85;5.80;;;;;;;-141.50;100.00;63355.56;5079054;28;20459;-80
2022/05/02 04:07:48;;;;;;;10.35;6.30;;;;;;;-141.50;100.00;63355.56;5083330;28;20049;-82
2022/05/02 04:10:15;;;;;;;8.57;5.75;;;;;;;-141.50;100.00;63355.56;5080928;28;20508;-82
2022/05/02 04:12:42;;;;;;;9.52;5.97;;;;;;;-141.50;100.00;63355.56;5077778;28;20083;-80
2022/05/02 04:15:12;;;;;;;10.35;6.80;;;;;;;-141.50;100.00;63355.56;5077732;28;20524;-81
2022/05/02 04:17:40;;;;;;;10.70;6.72;;;;;;;-141.50;100.00;63355.56;5080152;28;20048;-79
2022/05/02 04:20:11;;;;;;;11.25;7.38;;;;;;;-141.50;100.00;63355.56;5082595;28;20057;-80
2022/05/02 04:22:38;;;;;;;13.05;7.20;;;;;;;-141.50;100.00;63355.56;5081191;28;20052;-80
2022/05/02 04:25:05;;;;;;;11.90;7.25;;;;;;;-141.50;100.00;63355.56;5074552;28;20087;-77
2022/05/02 04:27:32;;;;;;;12.80;6.88;;;;;;;-141.50;100.00;63355.56;5071589;28;20048;-78
2022/05/02 04:30:05;;;;;;;18.52;7.97;;;;;;;-141.50;100.00;63355.56;5072806;28;20098;-77
2022/05/02 04:32:34;;;;;;;18.90;7.97;;;;;;;-141.50;100.00;63355.56;5071319;28;20049;-76
2022/05/02 04:35:02;;;;;;;16.27;7.90;;;;;;;-141.50;100.00;63355.56;5072199;28;20383;-77
2022/05/02 04:37:38;;;;;;;21.20;7.90;;;;;;;-141.50;100.00;63355.56;5071920;28;20045;-77
2022/05/02 04:40:10;;;;;;;16.48;8.60;;;;;;;-141.50;100.00;63355.56;5092069;28;20044;-81
2022/05/02 04:42:38;;;;;;;14.30;7.55;;;;;;;-141.50;100.00;63355.56;5094214;28;20087;-82
2022/05/02 04:45:05;;;;;;;17.25;7.60;;;;;;;-141.50;100.00;63355.56;5096224;28;20040;-81
2022/05/02 04:47:31;;;;;;;13.00;7.22;;;;;;;-141.50;100.00;63355.56;5095828;28;20110;-81
2022/05/02 04:50:02;;;;;;;19.02;7.90;;;;;;;-141.50;100.00;63355.56;5113427;28;20110;-82
2022/05/02 04:52:31;;;;;;;18.70;6.97;;;;;;;-141.50;100.00;63355.56;5097831;28;20048;-82
2022/05/02 04:54:57;;;;;;;22.35;7.63;;;;;;;-141.50;100.00;63355.56;5098367;28;20069;-81
2022/05/02 04:57:24;;;;;;;20.85;7.65;;;;;;;-141.50;100.00;63355.56;5100119;28;20537;-82
2022/05/02 04:59:53;;;;;;;15.13;7.53;;;;;;;-141.50;100.00;63355.56;5096609;28;20048;-81
2022/05/02 05:02:30;;;;;;;15.50;7.68;;;;;;;-141.50;100.00;63355.56;5093712;28;20048;-82
2022/05/02 05:04:57;;;;;;;14.82;7.70;;;;;;;-141.50;100.00;63355.56;5083490;28;20056;-81
2022/05/02 05:07:28;;;;;;;17.55;7.85;;;;;;;-141.50;100.00;63355.56;5076993;28;20049;-82
2022/05/02 05:09:55;;;;;;;15.82;7.55;;;;;;;-141.50;100.00;63355.56;5074783;28;20056;-81
2022/05/02 05:13:03;;;;;;;10.52;6.95;;;;;;;-141.50;100.00;63355.56;5073273;28;20056;-81
2022/05/02 05:19:05;;;;;;;14.88;7.50;;;;;;;-141.50;100.00;63355.56;5093417;28;20047;-81
2022/05/02 05:21:45;;;;;;;18.33;8.00;;;;;;;-141.50;100.00;63355.56;5104482;28;20039;-80
2022/05/02 05:24:42;;;;;;;20.25;7.68;;;;;;;-141.50;100.00;63355.56;5083400;28;20454;-81
2022/05/02 05:27:48;;;;;;;13.57;7.47;;;;;;;-141.50;100.00;63355.56;5078579;28;20129;-82
2022/05/02 05:30:21;;;;;;;20.30;7.70;;;;;;;-141.50;100.00;63355.56;5087931;28;20048;-81
2022/05/02 05:32:59;;;;;;;12.80;7.25;;;;;;;-141.50;100.00;63355.56;5082833;28;20048;-82
2022/05/02 05:35:49;;;;;;;20.77;7.38;;;;;;;-141.50;100.00;63355.56;5093064;28;20074;-81
2022/05/02 05:38:31;;;;;;;10.52;7.00;;;;;;;-141.50;100.00;63355.56;5091860;28;20544;-85
2022/05/02 05:41:18;;;;;;;17.48;7.28;;;;;;;-141.50;100.00;63355.56;5077820;28;20382;-83
2022/05/02 05:44:02;;;;;;;12.80;6.93;;;;;;;-141.50;100.00;63355.56;5085165;28;20048;-83
2022/05/02 05:46:45;;;;;;;13.75;6.82;;;;;;;-141.50;100.00;63355.56;5098532;28;20054;-84
2022/05/02 05:49:20;;;;;;;11.65;6.80;;;;;;;-141.50;100.00;63355.56;5094203;28;20056;-83
2022/05/02 05:51:52;;;;;;;12.93;7.15;;;;;;;-141.50;100.00;63355.56;5093581;28;20052;-81
2022/05/02 05:54:38;;;;;;;17.73;7.65;;;;;;;-141.50;100.00;63355.56;5099307;28;20067;-81
2022/05/02 05:57:38;;;;;;;19.95;7.50;;;;;;;-141.50;100.00;63355.56;5087659;28;20048;-82
2022/05/02 06:00:11;;;;;;;17.05;7.97;;;;;;;-141.50;100.00;63355.56;5094842;28;20087;-81
2022/05/02 06:03:01;;;;;;;17.52;8.52;;;;;;;-141.50;100.00;63355.56;5089171;28;20071;-80
2022/05/02 06:05:39;;;;;;;18.65;7.68;;;;;;;-141.50;100.00;63355.56;5076072;28;20057;-82
2022/05/02 06:08:10;;;;;;;13.35;7.22;;;;;;;-141.50;100.00;63355.56;5085470;28;20044;-84
2022/05/02 06:10:39;;;;;;;14.27;7.65;;;;;;;-141.50;100.00;63355.56;5088281;28;20564;-83
2022/05/02 06:13:07;;;;;;;11.23;7.30;;;;;;;-141.50;100.00;63355.56;5093669;28;20047;-81
2022/05/02 06:18:38;;;;;;;16.65;7.38;;;;;;;-141.50;100.00;63355.56;5097877;28;20133;-83
2022/05/02 06:21:06;;;;;;;14.85;7.55;;;;;;;-141.50;100.00;63355.56;5095723;28;20052;-82
2022/05/02 06:23:41;;;;;;;22.33;8.25;;;;;;;-141.50;100.00;63355.56;5094967;28;20511;-81
2022/05/02 06:26:09;;;;;;;14.15;7.38;;;;;;;-141.50;100.00;63355.56;5096506;28;20127;-81
2022/05/02 06:28:41;;;;;;;12.48;6.40;;;;;;;-141.50;100.00;63355.56;5095766;28;20683;-81
2022/05/02 06:31:23;;;;;;;12.98;6.70;;;;;;;-141.50;100.00;63355.56;5097080;28;20059;-84
2022/05/02 06:33:51;;;;;;;10.95;6.30;;;;;;;-141.50;100.00;63355.56;5097724;28;20066;-82
2022/05/02 06:36:47;;;;;;;10.15;6.03;;;;;;;-141.50;100.00;63355.56;5097233;28;20111;-82
2022/05/02 06:39:27;;;;;;;12.73;6.50;;;;;;;-141.50;100.00;63355.56;5075582;28;20048;-81
2022/05/02 06:42:09;;;;;;;13.98;6.38;;;;;;;-141.50;100.00;63355.56;5090655;28;20064;-80
2022/05/02 06:45:04;;;;;;;10.25;6.05;;;;;;;-141.50;100.00;63355.56;5086677;28;20056;-82
2022/05/02 06:47:59;;;;;;;9.00;6.25;;;;;;;-141.50;100.00;63355.56;5094870;28;20044;-81
2022/05/02 06:50:31;;;;;;;10.27;6.63;;;;;;;-141.50;100.00;63355.56;5097017;28;20055;-81
2022/05/02 06:53:23;;;;;;;16.67;6.80;;;;;;;-141.50;100.00;63355.56;5093627;28;20048;-82
2022/05/02 06:56:20;;;;;;;13.07;6.88;;;;;;;-141.50;100.00;63355.56;5096905;28;20090;-81
2022/05/02 06:59:00;;;;;;;11.98;6.60;;;;;;;-141.50;100.00;63355.56;5062877;28;20058;-80
2022/05/02 07:02:09;;;;;;;14.52;6.85;;;;;;;-141.50;100.00;63355.56;5097541;28;20109;-78
2022/05/02 07:04:55;;;;;;;12.15;6.47;;;;;;;-141.50;100.00;63355.56;5097630;28;20048;-82
2022/05/02 07:07:40;;;;;;;12.75;5.82;;;;;;;-141.50;100.00;63355.56;5096892;28;20063;-81
2022/05/02 07:10:28;;;;;;;10.32;6.38;;;;;;;-141.50;100.00;63355.56;5096477;28;20056;-83
2022/05/02 07:13:16;;;;;;;15.63;6.50;;;;;;;-141.50;100.00;63355.56;5083720;28;20059;-83
2022/05/02 07:16:02;;;;;;;19.08;6.75;;;;;;;-141.50;100.00;63355.56;5095344;28;20052;-79
2022/05/02 07:18:36;;;;;;;9.25;5.82;;;;;;;-141.50;100.00;63355.56;5076575;28;20044;-79
2022/05/02 07:21:18;;;;;;;12.80;6.50;;;;;;;-141.50;100.00;63355.56;5076754;28;20059;-81
2022/05/02 07:24:05;;;;;;;12.48;6.22;;;;;;;-141.50;100.00;63355.56;5073987;28;20512;-80
2022/05/02 07:26:36;;;;;;;11.10;6.57;;;;;;;-141.50;100.00;63355.56;5077124;28;20394;-82
2022/05/02 07:29:05;;;;;;;11.93;6.32;;;;;;;-141.50;100.00;63355.56;5076916;28;20057;-80
2022/05/02 07:31:37;;;;;;;14.60;6.45;;;;;;;-141.50;100.00;63355.56;5075977;28;20056;-80
2022/05/02 07:34:06;;;;;;;11.68;6.60;;;;;;;-141.50;100.00;63355.56;5075231;28;20522;-82
2022/05/02 07:36:35;;;;;;;15.20;6.90;;;;;;;-141.50;100.00;63355.56;5075391;28;20381;-79
2022/05/02 07:39:06;;;;;;;17.70;7.00;;;;;;;-141.50;100.00;63355.56;5086239;28;20040;-78
2022/05/02 07:41:35;;;;;;;13.75;6.40;;;;;;;-141.50;100.00;63355.56;5097982;28;20051;-82
2022/05/02 07:44:09;;;;;;;12.65;6.40;;;;;;;-141.50;100.00;63355.56;5097102;28;20054;-79
2022/05/02 07:46:49;;;;;;;13.40;6.50;;;;;;;-141.50;100.00;63355.56;5099375;28;20059;-82
2022/05/02 07:49:28;;;;;;;12.27;6.40;;;;;;;-141.50;100.00;63355.56;5093716;28;20052;-80
2022/05/02 07:51:57;;;;;;;13.55;6.18;;;;;;;-141.50;100.00;63355.56;5074417;28;20113;-80
2022/05/02 07:54:29;;;;;;;14.55;6.68;;;;;;;-141.50;100.00;63355.56;5071843;28;20489;-80
2022/05/02 07:57:09;;;;;;;;;;;;;;;-141.50;100.00;63355.56;5069250;28;20443;-80
2022/05/02 07:59:41;;;;;;;14.80;6.57;;;;;;;-141.50;100.00;63355.56;5069776;28;20356;-81
2022/05/02 08:02:17;;;;;;;13.07;6.38;;;;;;;-141.50;100.00;63355.56;5070238;28;20101;-81
2022/05/02 08:04:45;;;;;;;17.77;6.68;;;;;;;-141.50;100.00;63355.56;5074890;28;20052;-82
2022/05/02 08:07:15;;;;;;;11.57;5.95;;;;;;;-141.50;100.00;63355.56;5078051;28;20143;-81
2022/05/02 08:09:57;;;;;;;12.38;6.20;;;;;;;-141.50;100.00;63355.56;5078132;28;20509;-81
2022/05/02 08:12:39;;;;;;;14.75;6.68;;;;;;;-141.50;100.00;63355.56;5076098;28;20604;-82
2022/05/02 08:15:19;;;;;;;15.93;6.40;;;;;;;-141.50;100.00;63355.56;5078137;28;20106;-82
2022/05/02 08:18:05;;;;;;;12.73;6.30;;;;;;;-141.50;100.00;63355.56;5076189;28;20052;-81
2022/05/02 08:20:37;;;;;;;;;;;;;;;-141.50;100.00;63355.56;5075995;28;20048;-81
2022/05/02 08:29:28;;;;;;;11.20;5.90;;;;;;;-141.50;100.00;63355.56;5077103;28;20055;-81
2022/05/02 08:32:10;;;;;;;10.83;6.50;;;;;;;-141.50;100.00;63355.56;5076336;28;20565;-82
2022/05/02 08:34:40;;;;;;;15.23;6.20;;;;;;;-141.50;100.00;63355.56;5075821;28;20099;-81
2022/05/02 08:37:37;;;;;;;12.40;5.50;;;;;;;-141.50;100.00;63355.56;5080939;28;20150;-80
2022/05/02 08:40:04;;;;;;;13.35;6.40;;;;;;;-141.50;100.00;63355.56;5086648;28;20110;-81
2022/05/02 08:43:04;;;;;;;11.20;6.30;;;;;;;-141.50;100.00;63355.56;5073174;28;20059;-81
2022/05/02 08:46:13;;;;;;;15.15;6.03;;;;;;;-141.50;100.00;63355.56;5087236;28;20067;-82
2022/05/02 08:49:33;;;;;;;11.73;5.93;;;;;;;-141.50;100.00;63355.56;5098353;28;20036;-81
2022/05/02 08:52:24;;;;;;;10.90;6.35;;;;;;;-141.50;100.00;63355.56;5088824;28;20044;-83
2022/05/02 08:55:18;;;;;;;13.93;5.88;;;;;;;-141.50;100.00;63355.56;5078304;28;20052;-81
2022/05/02 08:58:02;;;;;;;11.20;6.22;;;;;;;-141.50;100.00;63355.56;5073284;28;20063;-81
2022/05/02 09:01:02;;;;;;;11.93;6.07;;;;;;;-141.50;100.00;63355.56;5076924;28;20049;-80
2022/05/02 09:04:07;;;;;;;13.57;6.55;;;;;;;-141.50;100.00;63355.56;5082801;28;20123;-80
2022/05/02 09:07:05;;;;;;;10.82;6.65;;;;;;;-141.50;100.00;63355.56;5081574;28;20064;-80
2022/05/02 09:10:10;;;;;;;13.52;6.70;;;;;;;-141.50;100.00;63355.56;5079825;28;20087;-80
2022/05/02 09:12:51;;;;;;;18.77;6.68;;;;;;;-141.50;100.00;63355.56;5076020;28;20138;-81
2022/05/02 09:15:58;;;;;;;12.90;6.45;;;;;;;-141.50;100.00;63355.56;5077042;28;20075;-80
2022/05/02 09:19:02;;;;;;;15.43;6.35;;;;;;;-141.50;100.00;63355.56;5075917;28;20048;-81
2022/05/02 09:22:04;;;;;;;17.42;6.85;;;;;;;-141.50;100.00;63355.56;5074421;28;20106;-81
2022/05/02 09:24:49;;;;;;;9.90;5.38;;;;;;;-141.50;100.00;63355.56;5075205;28;20075;-82
2022/05/02 09:27:35;;;;;;;14.20;6.13;;;;;;;-141.50;100.00;63355.56;5076996;28;20061;-79
2022/05/02 09:30:14;;;;;;;12.02;6.68;;;;;;;-141.50;100.00;63355.56;5082161;28;20106;-79
2022/05/02 09:32:46;;;;;;;12.05;6.45;;;;;;;-141.50;100.00;63355.56;5075872;28;20056;-81
2022/05/02 09:35:45;;;;;;;15.23;6.50;;;;;;;-141.50;100.00;63355.56;5077785;28;20056;-81
2022/05/02 09:38:23;;;;;;;15.43;6.40;;;;;;;-141.50;100.00;63355.56;5084686;28;20534;-80
2022/05/02 09:40:58;;;;;;;10.48;6.50;;;;;;;-141.50;100.00;63355.56;5072782;28;20053;-81
2022/05/02 09:49:40;;;;;;;12.45;6.10;;;;;;;-141.50;100.00;63355.56;5076765;28;20086;-80
2022/05/02 09:52:37;;;;;;;10.60;5.60;;;;;;;-141.50;100.00;63355.56;5091883;28;20053;-80
2022/05/02 09:58:31;;;;;;;14.07;6.70;;;;;;;-141.50;100.00;63355.56;5063093;28;20424;-80
2022/05/02 10:01:25;;;;;;;14.85;7.05;;;;;;;-141.50;100.00;63355.56;5078054;28;20053;-80
2022/05/02 10:04:18;;;;;;;12.05;6.53;;;;;;;-141.50;100.00;63355.56;5069325;28;20078;-81
2022/05/02 10:06:53;;;;;;;16.25;6.47;;;;;;;-141.50;100.00;63355.56;5073935;28;20500;-80
2022/05/02 10:09:43;;;;;;;15.43;6.23;;;;;;;-141.50;100.00;63355.56;5075449;28;20056;-80
2022/05/02 10:12:59;;;;;;;11.67;6.27;;;;;;;-141.50;100.00;63355.56;5073654;28;20667;-80
2022/05/02 10:16:01;;;;;;;13.32;5.85;;;;;;;-141.50;100.00;63355.56;5071140;28;20049;-79
2022/05/02 10:19:03;;;;;;;13.02;5.70;;;;;;;-141.50;100.00;63355.56;5072448;28;20115;-78
2022/05/02 10:21:53;;;;;;;13.80;6.20;;;;;;;-141.50;100.00;63355.56;5061973;28;20048;-80
2022/05/02 10:24:45;;;;;;;15.57;5.95;;;;;;;-141.50;100.00;63355.56;5068177;28;20110;-78
2022/05/02 10:27:40;;;;;;;17.30;6.70;;;;;;;-141.50;100.00;63355.56;5067086;28;20080;-79
2022/05/02 10:30:11;;;;;;;13.40;6.13;;;;;;;-141.50;100.00;63355.56;5090292;28;20047;-80
2022/05/02 10:32:56;;;;;;;10.25;5.60;;;;;;;-141.50;100.00;63355.56;5077428;28;20049;-80
2022/05/02 10:35:29;;;;;;;12.05;6.03;;;;;;;-141.50;100.00;63355.56;5082854;28;20537;-79
2022/05/02 10:38:04;;;;;;;8.60;5.13;;;;;;;-141.50;100.00;63355.56;5082711;28;20087;-80
2022/05/02 10:40:38;;;;;;;;;;;;;;;-141.50;100.00;63355.56;5092515;28;20055;-77
2022/05/02 10:43:10;;;;;;;12.27;5.85;;;;;;;-141.50;100.00;63355.56;5091588;28;20317;-78
2022/05/02 10:45:39;;;;;;;10.50;5.82;;;;;;;-141.50;100.00;63355.56;5084670;28;20249;-77
2022/05/02 10:48:35;;;;;;;10.77;5.78;;;;;;;-141.50;100.00;63355.56;5086689;28;20094;-79
2022/05/02 10:51:09;;;;;;;13.57;5.78;;;;;;;-141.50;100.00;63355.56;5086440;28;20102;-80
2022/05/02 10:53:57;;;;;;;14.77;5.70;;;;;;;-141.50;100.00;63355.56;5078275;28;20063;-80
2022/05/02 10:56:43;;;;;;;11.57;5.95;;;;;;;-141.50;100.00;63355.56;5070039;28;20087;-79
2022/05/02 10:59:13;;;;;;;18.02;6.40;;;;;;;-141.50;100.00;63355.56;5067322;28;20060;-80
2022/05/02 11:02:02;;;;;;;10.15;6.07;;;;;;;-141.50;100.00;63355.56;5067907;28;20056;-79
2022/05/02 11:04:53;;;;;;;13.88;6.28;;;;;;;-141.50;100.00;63355.56;5075775;28;20584;-79
2022/05/02 11:07:28;;;;;;;8.87;5.37;;;;;;;-141.50;100.00;63355.56;5086048;28;20059;-79
2022/05/02 11:10:07;;;;;;;9.73;6.30;;;;;;;-141.50;100.00;63355.56;5086061;28;20068;-80
2022/05/02 11:12:41;;;;;;;16.83;5.65;;;;;;;-141.50;100.00;63355.56;5090488;28;20056;-78
2022/05/02 11:15:13;;;;;;;13.55;6.40;;;;;;;-141.50;100.00;63355.56;5090771;28;20169;-80
2022/05/02 11:17:48;;;;;;;12.23;5.97;;;;;;;-141.50;100.00;63355.56;5072210;28;20063;-80
2022/05/02 11:20:42;;;;;;;17.00;6.15;;;;;;;-141.50;100.00;63355.56;5068656;28;20090;-80
2022/05/02 11:23:27;;;;;;;10.93;6.80;;;;;;;-141.50;100.00;63355.56;5077701;28;20052;-79
2022/05/02 11:26:17;;;;;;;13.77;6.68;;;;;;;-141.50;100.00;63355.56;5089698;28;20058;-80
2022/05/02 11:29:25;;;;;;;13.73;7.07;;;;;;;-141.50;100.00;63355.56;5079003;28;20098;-79
2022/05/02 11:32:05;;;;;;;13.55;7.07;;;;;;;-141.50;100.00;63355.56;5071400;28;20064;-79
2022/05/02 11:34:34;;;;;;;14.82;6.90;;;;;;;-141.50;100.00;63355.56;5072386;28;20161;-80
2022/05/02 11:37:05;;;;;;;11.35;7.20;;;;;;;-141.50;100.00;63355.56;5076102;28;20052;-78
2022/05/02 11:39:38;;;;;;;9.80;6.45;;;;;;;-141.50;100.00;63355.56;5091111;28;20606;-80
2022/05/02 11:42:18;;;;;;;10.98;6.40;;;;;;;-141.50;100.00;63355.56;5081243;28;20549;-79
2022/05/02 11:45:13;;;;;;;21.25;7.28;;;;;;;-141.50;100.00;63355.56;5075900;28;20489;-81
2022/05/02 11:47:40;;;;;;;12.15;6.53;;;;;;;-141.50;100.00;63355.56;5076667;28;20099;-78
2022/05/02 11:50:09;;;;;;;12.65;6.22;;;;;;;-141.50;100.00;63355.56;5075670;28;20083;-80
2022/05/02 11:52:50;;;;;;;12.20;6.22;;;;;;;-141.50;100.00;63355.56;5074656;28;20072;-78
2022/05/02 11:55:18;;;;;;;11.82;6.53;;;;;;;-141.50;100.00;63355.56;5075699;28;20056;-79
2022/05/02 11:58:00;;;;;;;13.55;6.82;;;;;;;-141.50;100.00;63355.56;5075084;28;20508;-80
2022/05/02 12:00:32;;;;;;;15.00;7.20;;;;;;;-141.50;100.00;63355.56;5078181;28;20077;-79
2022/05/02 12:03:15;;;;;;;20.27;7.10;;;;;;;-141.50;100.00;63355.56;5077491;28;20078;-80
2022/05/02 12:05:47;;;;;;;11.88;6.45;;;;;;;-141.50;100.00;63355.56;5077707;28;20127;-79
2022/05/02 12:08:35;;;;;;;12.38;6.35;;;;;;;-141.50;100.00;63355.56;5081620;28;20049;-80
2022/05/02 12:11:07;;;;;;;15.85;7.15;;;;;;;-141.50;100.00;63355.56;5079155;28;20052;-80
2022/05/02 12:13:48;;;;;;;15.05;7.03;;;;;;;-141.50;100.00;63355.56;5095509;28;20044;-80